sensor_id;sensor_type;location;lat;lon;timestamp;temperature;humidity
13808;DHT22;40769;51.512;5.494;2022-11-28T00:01:19;11.30;99.90
13808;DHT22;40769;51.512;5.494;2022-11-28T00:03:46;11.30;99.90
13808;DHT22;40769;51.512;5.494;2022-11-28T00:06:12;11.30;99.90
13808;DHT22;40769;51.512;5.494;2022-11-28T00:08:37;11.60;99.90
13808;DHT22;40769;51.512;5.494;2022-11-28T00:11:05;11.30;99.90
13808;DHT22;40769;51.512;5.494;2022-11-28T00:13:31;11.30;99.90
13808;DHT22;40769;51.512;5.494;2022-11-28T00:16:01;11.30;99.90
13808;DHT22;40769;51.512;5.494;2022-11-28T00:18:28;11.40;99.90
13808;DHT22;40769;51.512;5.494;2022-11-28T00:21:05;11.40;99.90
13808;DHT22;40769;51.512;5.494;2022-11-28T00:23:31;11.40;99.90
13808;DHT22;40769;51.512;5.494;2022-11-28T00:26:22;11.50;99.90
13808;DHT22;40769;51.512;5.494;2022-11-28T00:28:48;11.40;99.90
13808;DHT22;40769;51.512;5.494;2022-11-28T00:31:19;11.50;99.90
13808;DHT22;40769;51.512;5.494;2022-11-28T00:33:45;11.50;99.90
13808;DHT22;40769;51.512;5.494;2022-11-28T00:36:11;11.50;99.90
13808;DHT22;40769;51.512;5.494;2022-11-28T00:38:38;11.60;99.90
13808;DHT22;40769;51.512;5.494;2022-11-28T00:41:11;11.60;99.90
13808;DHT22;40769;51.512;5.494;2022-11-28T00:43:41;11.60;99.90
13808;DHT22;40769;51.512;5.494;2022-11-28T00:46:07;11.60;99.90
13808;DHT22;40769;51.512;5.494;2022-11-28T00:48:34;11.70;99.90
13808;DHT22;40769;51.512;5.494;2022-11-28T00:51:14;11.70;99.90
13808;DHT22;40769;51.512;5.494;2022-11-28T00:53:42;11.80;99.90
13808;DHT22;40769;51.512;5.494;2022-11-28T00:56:10;11.80;99.90
13808;DHT22;40769;51.512;5.494;2022-11-28T00:58:37;11.80;99.90
13808;DHT22;40769;51.512;5.494;2022-11-28T01:01:14;11.80;99.90
13808;DHT22;40769;51.512;5.494;2022-11-28T01:03:41;11.90;99.90
13808;DHT22;40769;51.512;5.494;2022-11-28T01:06:08;11.90;99.90
13808;DHT22;40769;51.512;5.494;2022-11-28T01:08:35;11.90;99.90
13808;DHT22;40769;51.512;5.494;2022-11-28T01:11:01;12.00;99.90
13808;DHT22;40769;51.512;5.494;2022-11-28T01:13:27;12.00;99.90
13808;DHT22;40769;51.512;5.494;2022-11-28T01:15:53;12.00;99.90
13808;DHT22;40769;51.512;5.494;2022-11-28T01:18:19;12.50;99.90
13808;DHT22;40769;51.512;5.494;2022-11-28T01:20:44;12.00;99.90
13808;DHT22;40769;51.512;5.494;2022-11-28T01:23:10;12.10;99.90
13808;DHT22;40769;51.512;5.494;2022-11-28T01:25:35;12.10;99.90
13808;DHT22;40769;51.512;5.494;2022-11-28T01:28:01;12.10;99.90
13808;DHT22;40769;51.512;5.494;2022-11-28T01:30:27;12.10;99.90
13808;DHT22;40769;51.512;5.494;2022-11-28T01:32:52;12.10;99.90
13808;DHT22;40769;51.512;5.494;2022-11-28T01:35:18;12.10;99.90
13808;DHT22;40769;51.512;5.494;2022-11-28T01:37:44;12.10;99.90
13808;DHT22;40769;51.512;5.494;2022-11-28T01:40:12;12.10;99.90
13808;DHT22;40769;51.512;5.494;2022-11-28T01:42:38;12.10;99.90
13808;DHT22;40769;51.512;5.494;2022-11-28T01:45:27;12.10;99.90
13808;DHT22;40769;51.512;5.494;2022-11-28T01:47:56;12.00;99.90
13808;DHT22;40769;51.512;5.494;2022-11-28T01:50:23;10.90;99.90
13808;DHT22;40769;51.512;5.494;2022-11-28T01:52:51;12.00;99.90
13808;DHT22;40769;51.512;5.494;2022-11-28T01:55:21;12.10;99.90
13808;DHT22;40769;51.512;5.494;2022-11-28T01:57:47;12.00;99.90
13808;DHT22;40769;51.512;5.494;2022-11-28T02:00:16;12.00;99.90
13808;DHT22;40769;51.512;5.494;2022-11-28T02:02:56;12.00;99.90
13808;DHT22;40769;51.512;5.494;2022-11-28T02:05:24;11.90;99.90
13808;DHT22;40769;51.512;5.494;2022-11-28T02:07:50;11.90;99.90
13808;DHT22;40769;51.512;5.494;2022-11-28T02:10:29;11.90;99.90
13808;DHT22;40769;51.512;5.494;2022-11-28T02:35:29;11.80;99.90
13808;DHT22;40769;51.512;5.494;2022-11-28T02:38:13;11.70;99.90
13808;DHT22;40769;51.512;5.494;2022-11-28T02:44:00;11.70;99.90
13808;DHT22;40769;51.512;5.494;2022-11-28T02:49:26;11.70;99.90
13808;DHT22;40769;51.512;5.494;2022-11-28T02:52:08;11.70;99.90
13808;DHT22;40769;51.512;5.494;2022-11-28T02:54:35;11.70;99.90
13808;DHT22;40769;51.512;5.494;2022-11-28T02:57:02;11.60;99.90
13808;DHT22;40769;51.512;5.494;2022-11-28T03:02:25;11.60;99.90
13808;DHT22;40769;51.512;5.494;2022-11-28T03:05:16;11.60;99.90
13808;DHT22;40769;51.512;5.494;2022-11-28T03:08:01;11.60;99.90
13808;DHT22;40769;51.512;5.494;2022-11-28T03:19:09;11.40;99.90
13808;DHT22;40769;51.512;5.494;2022-11-28T03:21:51;11.40;99.90
13808;DHT22;40769;51.512;5.494;2022-11-28T03:24:34;11.40;99.90
13808;DHT22;40769;51.512;5.494;2022-11-28T03:27:20;11.40;99.90
13808;DHT22;40769;51.512;5.494;2022-11-28T03:30:00;11.60;99.90
13808;DHT22;40769;51.512;5.494;2022-11-28T03:32:30;11.40;99.90
13808;DHT22;40769;51.512;5.494;2022-11-28T03:35:03;11.30;99.90
13808;DHT22;40769;51.512;5.494;2022-11-28T03:37:33;11.30;99.90
13808;DHT22;40769;51.512;5.494;2022-11-28T03:40:04;11.30;99.90
13808;DHT22;40769;51.512;5.494;2022-11-28T03:42:35;11.30;99.90
13808;DHT22;40769;51.512;5.494;2022-11-28T03:45:07;11.30;99.90
13808;DHT22;40769;51.512;5.494;2022-11-28T03:47:40;11.30;99.90
13808;DHT22;40769;51.512;5.494;2022-11-28T03:50:11;11.30;99.90
13808;DHT22;40769;51.512;5.494;2022-11-28T03:52:49;11.30;99.90
13808;DHT22;40769;51.512;5.494;2022-11-28T03:55:22;11.30;99.90
13808;DHT22;40769;51.512;5.494;2022-11-28T03:58:37;11.20;99.90
13808;DHT22;40769;51.512;5.494;2022-11-28T04:06:51;11.20;99.90
13808;DHT22;40769;51.512;5.494;2022-11-28T04:09:44;11.30;99.90
13808;DHT22;40769;51.512;5.494;2022-11-28T04:12:12;11.30;99.90
13808;DHT22;40769;51.512;5.494;2022-11-28T04:14:48;11.30;99.90
13808;DHT22;40769;51.512;5.494;2022-11-28T04:17:21;11.30;99.90
13808;DHT22;40769;51.512;5.494;2022-11-28T04:20:05;11.30;99.90
13808;DHT22;40769;51.512;5.494;2022-11-28T04:22:54;11.30;99.90
13808;DHT22;40769;51.512;5.494;2022-11-28T04:25:23;11.30;99.90
13808;DHT22;40769;51.512;5.494;2022-11-28T04:27:54;11.20;99.90
13808;DHT22;40769;51.512;5.494;2022-11-28T04:30:21;11.20;99.90
13808;DHT22;40769;51.512;5.494;2022-11-28T04:32:50;11.20;99.90
13808;DHT22;40769;51.512;5.494;2022-11-28T04:35:30;11.10;99.90
13808;DHT22;40769;51.512;5.494;2022-11-28T04:37:58;11.10;99.90
13808;DHT22;40769;51.512;5.494;2022-11-28T04:40:26;11.10;99.90
13808;DHT22;40769;51.512;5.494;2022-11-28T04:43:02;11.10;99.90
13808;DHT22;40769;51.512;5.494;2022-11-28T04:45:33;11.10;99.90
13808;DHT22;40769;51.512;5.494;2022-11-28T04:48:00;11.10;99.90
13808;DHT22;40769;51.512;5.494;2022-11-28T04:53:44;11.10;99.90
13808;DHT22;40769;51.512;5.494;2022-11-28T04:59:15;11.10;99.90
13808;DHT22;40769;51.512;5.494;2022-11-28T05:01:43;11.10;99.90
13808;DHT22;40769;51.512;5.494;2022-11-28T05:04:12;11.10;99.90
13808;DHT22;40769;51.512;5.494;2022-11-28T05:06:37;11.10;99.90
13808;DHT22;40769;51.512;5.494;2022-11-28T05:09:03;11.10;99.90
13808;DHT22;40769;51.512;5.494;2022-11-28T05:11:29;11.10;99.90
13808;DHT22;40769;51.512;5.494;2022-11-28T05:13:55;11.20;99.90
13808;DHT22;40769;51.512;5.494;2022-11-28T05:16:21;11.10;99.90
13808;DHT22;40769;51.512;5.494;2022-11-28T05:18:48;11.20;99.90
13808;DHT22;40769;51.512;5.494;2022-11-28T05:21:13;11.40;99.90
13808;DHT22;40769;51.512;5.494;2022-11-28T05:23:41;11.20;99.90
13808;DHT22;40769;51.512;5.494;2022-11-28T05:26:08;11.20;99.90
13808;DHT22;40769;51.512;5.494;2022-11-28T05:28:34;11.20;99.90
13808;DHT22;40769;51.512;5.494;2022-11-28T05:31:00;11.20;99.90
13808;DHT22;40769;51.512;5.494;2022-11-28T05:33:28;11.20;99.90
13808;DHT22;40769;51.512;5.494;2022-11-28T05:36:02;11.20;99.90
13808;DHT22;40769;51.512;5.494;2022-11-28T05:38:28;11.20;99.90
13808;DHT22;40769;51.512;5.494;2022-11-28T05:40:53;11.60;99.90
13808;DHT22;40769;51.512;5.494;2022-11-28T05:43:19;11.20;99.90
13808;DHT22;40769;51.512;5.494;2022-11-28T05:45:44;11.20;99.90
13808;DHT22;40769;51.512;5.494;2022-11-28T05:48:10;11.30;99.90
13808;DHT22;40769;51.512;5.494;2022-11-28T05:50:42;11.30;99.90
13808;DHT22;40769;51.512;5.494;2022-11-28T05:53:08;11.30;99.90
13808;DHT22;40769;51.512;5.494;2022-11-28T05:55:37;11.30;99.90
13808;DHT22;40769;51.512;5.494;2022-11-28T05:58:04;11.30;99.90
13808;DHT22;40769;51.512;5.494;2022-11-28T06:00:29;11.30;99.90
13808;DHT22;40769;51.512;5.494;2022-11-28T06:02:55;11.30;99.90
13808;DHT22;40769;51.512;5.494;2022-11-28T06:05:21;11.30;99.90
13808;DHT22;40769;51.512;5.494;2022-11-28T06:07:47;11.30;99.90
13808;DHT22;40769;51.512;5.494;2022-11-28T06:10:12;11.30;99.90
13808;DHT22;40769;51.512;5.494;2022-11-28T06:12:38;11.30;99.90
13808;DHT22;40769;51.512;5.494;2022-11-28T06:15:04;11.50;99.90
13808;DHT22;40769;51.512;5.494;2022-11-28T06:17:30;11.30;99.90
13808;DHT22;40769;51.512;5.494;2022-11-28T06:19:56;11.40;99.90
13808;DHT22;40769;51.512;5.494;2022-11-28T06:22:22;11.60;99.90
13808;DHT22;40769;51.512;5.494;2022-11-28T06:24:47;11.50;99.90
13808;DHT22;40769;51.512;5.494;2022-11-28T06:27:13;11.40;99.90
13808;DHT22;40769;51.512;5.494;2022-11-28T06:29:38;11.40;99.90
13808;DHT22;40769;51.512;5.494;2022-11-28T06:32:04;11.40;99.90
13808;DHT22;40769;51.512;5.494;2022-11-28T06:34:30;11.50;99.90
13808;DHT22;40769;51.512;5.494;2022-11-28T06:36:56;11.40;99.90
13808;DHT22;40769;51.512;5.494;2022-11-28T06:39:22;11.40;99.90
13808;DHT22;40769;51.512;5.494;2022-11-28T06:41:48;11.40;99.90
13808;DHT22;40769;51.512;5.494;2022-11-28T06:44:15;11.40;99.90
13808;DHT22;40769;51.512;5.494;2022-11-28T06:46:41;11.50;99.90
13808;DHT22;40769;51.512;5.494;2022-11-28T06:49:10;11.50;99.90
13808;DHT22;40769;51.512;5.494;2022-11-28T06:51:37;11.50;99.90
13808;DHT22;40769;51.512;5.494;2022-11-28T06:54:03;11.50;99.90
13808;DHT22;40769;51.512;5.494;2022-11-28T06:56:29;11.50;99.90
13808;DHT22;40769;51.512;5.494;2022-11-28T06:58:56;11.50;99.90
13808;DHT22;40769;51.512;5.494;2022-11-28T07:01:25;11.50;99.90
13808;DHT22;40769;51.512;5.494;2022-11-28T07:03:51;12.60;99.90
13808;DHT22;40769;51.512;5.494;2022-11-28T07:06:18;11.80;99.90
13808;DHT22;40769;51.512;5.494;2022-11-28T07:08:45;11.50;99.90
13808;DHT22;40769;51.512;5.494;2022-11-28T07:13:41;11.50;99.90
13808;DHT22;40769;51.512;5.494;2022-11-28T07:16:32;11.70;99.90
13808;DHT22;40769;51.512;5.494;2022-11-28T07:18:57;11.60;99.90
13808;DHT22;40769;51.512;5.494;2022-11-28T07:21:23;11.70;99.90
13808;DHT22;40769;51.512;5.494;2022-11-28T07:23:49;11.60;99.90
13808;DHT22;40769;51.512;5.494;2022-11-28T07:26:17;11.80;99.90
13808;DHT22;40769;51.512;5.494;2022-11-28T07:28:43;11.90;99.90
13808;DHT22;40769;51.512;5.494;2022-11-28T07:31:11;11.70;99.90
13808;DHT22;40769;51.512;5.494;2022-11-28T07:33:39;11.70;99.90
13808;DHT22;40769;51.512;5.494;2022-11-28T07:36:09;11.80;99.90
13808;DHT22;40769;51.512;5.494;2022-11-28T07:38:35;11.80;99.90
13808;DHT22;40769;51.512;5.494;2022-11-28T07:41:06;11.70;99.90
13808;DHT22;40769;51.512;5.494;2022-11-28T07:43:32;11.80;99.90
13808;DHT22;40769;51.512;5.494;2022-11-28T07:45:58;12.00;99.90
13808;DHT22;40769;51.512;5.494;2022-11-28T07:48:24;11.80;99.90
13808;DHT22;40769;51.512;5.494;2022-11-28T07:50:50;11.80;99.90
13808;DHT22;40769;51.512;5.494;2022-11-28T07:53:16;11.70;99.90
13808;DHT22;40769;51.512;5.494;2022-11-28T07:55:41;11.70;99.90
13808;DHT22;40769;51.512;5.494;2022-11-28T07:58:07;11.80;99.90
13808;DHT22;40769;51.512;5.494;2022-11-28T08:00:33;11.70;99.90
13808;DHT22;40769;51.512;5.494;2022-11-28T08:02:58;12.00;99.90
13808;DHT22;40769;51.512;5.494;2022-11-28T08:05:24;11.80;99.90
13808;DHT22;40769;51.512;5.494;2022-11-28T08:07:50;11.80;99.90
13808;DHT22;40769;51.512;5.494;2022-11-28T08:10:16;11.80;99.90
13808;DHT22;40769;51.512;5.494;2022-11-28T08:12:42;11.70;99.90
13808;DHT22;40769;51.512;5.494;2022-11-28T08:15:08;11.70;99.90
13808;DHT22;40769;51.512;5.494;2022-11-28T08:17:34;11.60;99.90
13808;DHT22;40769;51.512;5.494;2022-11-28T08:20:00;11.60;99.90
13808;DHT22;40769;51.512;5.494;2022-11-28T08:22:26;11.60;99.90
13808;DHT22;40769;51.512;5.494;2022-11-28T08:24:52;11.60;99.90
13808;DHT22;40769;51.512;5.494;2022-11-28T08:27:18;11.50;99.90
13808;DHT22;40769;51.512;5.494;2022-11-28T08:29:44;11.50;99.90
13808;DHT22;40769;51.512;5.494;2022-11-28T08:32:09;11.50;99.90
13808;DHT22;40769;51.512;5.494;2022-11-28T08:34:35;10.70;99.90
13808;DHT22;40769;51.512;5.494;2022-11-28T08:37:00;11.50;99.90
13808;DHT22;40769;51.512;5.494;2022-11-28T08:39:26;11.60;99.90
13808;DHT22;40769;51.512;5.494;2022-11-28T08:41:53;11.50;99.90
13808;DHT22;40769;51.512;5.494;2022-11-28T08:44:21;11.60;99.90
13808;DHT22;40769;51.512;5.494;2022-11-28T08:46:47;11.60;99.90
13808;DHT22;40769;51.512;5.494;2022-11-28T08:49:13;11.60;99.90
13808;DHT22;40769;51.512;5.494;2022-11-28T08:51:38;11.60;99.90
13808;DHT22;40769;51.512;5.494;2022-11-28T08:54:04;11.60;99.90
13808;DHT22;40769;51.512;5.494;2022-11-28T08:56:30;11.70;99.90
13808;DHT22;40769;51.512;5.494;2022-11-28T08:58:55;11.70;99.90
13808;DHT22;40769;51.512;5.494;2022-11-28T09:01:23;11.70;99.90
13808;DHT22;40769;51.512;5.494;2022-11-28T09:03:49;11.70;99.90
13808;DHT22;40769;51.512;5.494;2022-11-28T09:06:16;11.80;99.90
13808;DHT22;40769;51.512;5.494;2022-11-28T09:08:42;11.70;99.90
13808;DHT22;40769;51.512;5.494;2022-11-28T09:11:10;11.70;99.90
13808;DHT22;40769;51.512;5.494;2022-11-28T09:13:37;11.70;99.90
13808;DHT22;40769;51.512;5.494;2022-11-28T09:16:03;11.70;99.90
13808;DHT22;40769;51.512;5.494;2022-11-28T09:18:30;11.80;99.90
13808;DHT22;40769;51.512;5.494;2022-11-28T09:20:57;12.10;99.90
13808;DHT22;40769;51.512;5.494;2022-11-28T09:23:23;11.80;99.90
13808;DHT22;40769;51.512;5.494;2022-11-28T09:25:49;11.80;99.90
13808;DHT22;40769;51.512;5.494;2022-11-28T09:28:14;11.80;99.90
13808;DHT22;40769;51.512;5.494;2022-11-28T09:30:40;11.90;99.90
13808;DHT22;40769;51.512;5.494;2022-11-28T09:33:05;12.00;99.90
13808;DHT22;40769;51.512;5.494;2022-11-28T09:35:31;11.90;99.90
13808;DHT22;40769;51.512;5.494;2022-11-28T09:37:57;11.90;99.90
13808;DHT22;40769;51.512;5.494;2022-11-28T09:40:49;11.90;99.90
13808;DHT22;40769;51.512;5.494;2022-11-28T09:43:22;12.10;99.90
13808;DHT22;40769;51.512;5.494;2022-11-28T09:45:52;12.10;99.90
13808;DHT22;40769;51.512;5.494;2022-11-28T09:48:54;12.00;99.90
13808;DHT22;40769;51.512;5.494;2022-11-28T09:51:20;12.00;99.90
13808;DHT22;40769;51.512;5.494;2022-11-28T09:54:01;12.00;99.90
13808;DHT22;40769;51.512;5.494;2022-11-28T09:56:30;12.10;99.90
13808;DHT22;40769;51.512;5.494;2022-11-28T09:58:57;12.10;99.90
13808;DHT22;40769;51.512;5.494;2022-11-28T10:09:39;12.30;99.90
13808;DHT22;40769;51.512;5.494;2022-11-28T10:15:18;12.20;99.90
13808;DHT22;40769;51.512;5.494;2022-11-28T10:20:55;12.20;99.90
13808;DHT22;40769;51.512;5.494;2022-11-28T10:25:52;12.00;99.90
13808;DHT22;40769;51.512;5.494;2022-11-28T10:28:29;11.90;99.90
13808;DHT22;40769;51.512;5.494;2022-11-28T10:31:24;11.80;99.90
13808;DHT22;40769;51.512;5.494;2022-11-28T10:33:59;11.80;99.90
13808;DHT22;40769;51.512;5.494;2022-11-28T10:39:12;11.80;99.90
13808;DHT22;40769;51.512;5.494;2022-11-28T10:41:51;11.80;99.90
13808;DHT22;40769;51.512;5.494;2022-11-28T10:47:23;11.80;99.90
13808;DHT22;40769;51.512;5.494;2022-11-28T10:50:11;11.80;99.90
13808;DHT22;40769;51.512;5.494;2022-11-28T10:52:45;11.80;99.90
13808;DHT22;40769;51.512;5.494;2022-11-28T10:58:23;11.90;99.90
13808;DHT22;40769;51.512;5.494;2022-11-28T11:00:54;12.00;99.90
13808;DHT22;40769;51.512;5.494;2022-11-28T11:03:26;12.00;99.90
13808;DHT22;40769;51.512;5.494;2022-11-28T11:05:52;12.10;99.90
13808;DHT22;40769;51.512;5.494;2022-11-28T11:08:24;12.20;99.90
13808;DHT22;40769;51.512;5.494;2022-11-28T11:10:54;12.30;99.90
13808;DHT22;40769;51.512;5.494;2022-11-28T11:13:28;12.30;99.90
13808;DHT22;40769;51.512;5.494;2022-11-28T11:16:14;12.50;99.90
13808;DHT22;40769;51.512;5.494;2022-11-28T11:21:20;12.70;99.90
13808;DHT22;40769;51.512;5.494;2022-11-28T11:23:47;12.80;99.90
13808;DHT22;40769;51.512;5.494;2022-11-28T11:26:25;13.00;99.90
13808;DHT22;40769;51.512;5.494;2022-11-28T11:28:52;13.10;99.90
13808;DHT22;40769;51.512;5.494;2022-11-28T11:33:50;13.20;99.90
13808;DHT22;40769;51.512;5.494;2022-11-28T11:36:32;13.20;99.90
13808;DHT22;40769;51.512;5.494;2022-11-28T11:41:44;13.20;99.90
13808;DHT22;40769;51.512;5.494;2022-11-28T11:47:38;13.20;99.90
13808;DHT22;40769;51.512;5.494;2022-11-28T11:49:46;13.20;99.90
13808;DHT22;40769;51.512;5.494;2022-11-28T11:52:14;13.10;99.90
13808;DHT22;40769;51.512;5.494;2022-11-28T11:57:13;12.90;99.90
13808;DHT22;40769;51.512;5.494;2022-11-28T11:59:43;12.80;99.90
13808;DHT22;40769;51.512;5.494;2022-11-28T12:05:01;12.50;99.90
13808;DHT22;40769;51.512;5.494;2022-11-28T12:10:20;12.40;99.90
13808;DHT22;40769;51.512;5.494;2022-11-28T12:12:46;12.30;99.90
13808;DHT22;40769;51.512;5.494;2022-11-28T12:18:49;12.20;99.90
13808;DHT22;40769;51.512;5.494;2022-11-28T12:26:40;12.10;99.90
13808;DHT22;40769;51.512;5.494;2022-11-28T12:29:24;12.20;99.90
13808;DHT22;40769;51.512;5.494;2022-11-28T12:37:36;12.00;99.90
13808;DHT22;40769;51.512;5.494;2022-11-28T12:40:23;12.00;99.90
13808;DHT22;40769;51.512;5.494;2022-11-28T12:46:09;12.00;99.90
13808;DHT22;40769;51.512;5.494;2022-11-28T12:54:36;12.30;99.90
13808;DHT22;40769;51.512;5.494;2022-11-28T13:05:20;12.90;99.90
13808;DHT22;40769;51.512;5.494;2022-11-28T13:18:47;13.40;99.90
13808;DHT22;40769;51.512;5.494;2022-11-28T13:24:02;13.40;99.90
13808;DHT22;40769;51.512;5.494;2022-11-28T13:26:59;13.40;99.90
13808;DHT22;40769;51.512;5.494;2022-11-28T13:29:30;13.40;99.90
13808;DHT22;40769;51.512;5.494;2022-11-28T13:32:20;13.20;99.90
13808;DHT22;40769;51.512;5.494;2022-11-28T13:34:48;13.10;99.90
13808;DHT22;40769;51.512;5.494;2022-11-28T13:37:38;13.10;99.90
13808;DHT22;40769;51.512;5.494;2022-11-28T13:45:31;12.70;99.90
13808;DHT22;40769;51.512;5.494;2022-11-28T13:47:57;12.60;99.90
13808;DHT22;40769;51.512;5.494;2022-11-28T13:50:31;12.50;99.90
13808;DHT22;40769;51.512;5.494;2022-11-28T13:53:23;12.50;99.90
13808;DHT22;40769;51.512;5.494;2022-11-28T13:58:54;12.30;99.90
13808;DHT22;40769;51.512;5.494;2022-11-28T14:01:25;12.30;99.90
13808;DHT22;40769;51.512;5.494;2022-11-28T14:04:05;12.20;99.90
13808;DHT22;40769;51.512;5.494;2022-11-28T14:06:47;12.20;99.90
13808;DHT22;40769;51.512;5.494;2022-11-28T14:23:04;12.10;99.90
13808;DHT22;40769;51.512;5.494;2022-11-28T14:25:44;12.00;99.90
13808;DHT22;40769;51.512;5.494;2022-11-28T14:28:28;12.00;99.90
13808;DHT22;40769;51.512;5.494;2022-11-28T14:31:21;12.00;99.90
13808;DHT22;40769;51.512;5.494;2022-11-28T14:33:48;12.00;99.90
13808;DHT22;40769;51.512;5.494;2022-11-28T14:36:29;12.00;99.90
13808;DHT22;40769;51.512;5.494;2022-11-28T14:44:46;12.00;99.90
13808;DHT22;40769;51.512;5.494;2022-11-28T14:47:14;12.00;99.90
13808;DHT22;40769;51.512;5.494;2022-11-28T14:49:40;12.00;99.90
13808;DHT22;40769;51.512;5.494;2022-11-28T14:52:18;12.00;99.90
13808;DHT22;40769;51.512;5.494;2022-11-28T14:54:45;12.00;99.90
13808;DHT22;40769;51.512;5.494;2022-11-28T14:57:32;12.00;99.90
13808;DHT22;40769;51.512;5.494;2022-11-28T15:08:03;12.00;99.90
13808;DHT22;40769;51.512;5.494;2022-11-28T15:15:53;12.00;99.90
13808;DHT22;40769;51.512;5.494;2022-11-28T15:18:20;12.00;99.90
13808;DHT22;40769;51.512;5.494;2022-11-28T15:20:51;12.00;99.90
13808;DHT22;40769;51.512;5.494;2022-11-28T15:23:34;12.00;99.90
13808;DHT22;40769;51.512;5.494;2022-11-28T15:26:00;12.00;99.90
13808;DHT22;40769;51.512;5.494;2022-11-28T15:28:29;12.00;99.90
13808;DHT22;40769;51.512;5.494;2022-11-28T15:31:01;12.00;99.90
13808;DHT22;40769;51.512;5.494;2022-11-28T15:33:29;12.00;99.90
13808;DHT22;40769;51.512;5.494;2022-11-28T15:36:02;12.00;99.90
13808;DHT22;40769;51.512;5.494;2022-11-28T15:38:40;12.00;99.90
13808;DHT22;40769;51.512;5.494;2022-11-28T15:41:06;12.00;99.90
13808;DHT22;40769;51.512;5.494;2022-11-28T15:43:32;12.30;99.90
13808;DHT22;40769;51.512;5.494;2022-11-28T15:46:01;12.00;99.90
13808;DHT22;40769;51.512;5.494;2022-11-28T15:51:00;12.00;99.90
13808;DHT22;40769;51.512;5.494;2022-11-28T15:53:26;11.90;99.90
13808;DHT22;40769;51.512;5.494;2022-11-28T15:56:11;12.00;99.90
13808;DHT22;40769;51.512;5.494;2022-11-28T15:58:38;11.90;99.90
13808;DHT22;40769;51.512;5.494;2022-11-28T16:01:26;11.90;99.90
13808;DHT22;40769;51.512;5.494;2022-11-28T16:06:30;12.20;99.90
13808;DHT22;40769;51.512;5.494;2022-11-28T16:11:47;11.90;99.90
13808;DHT22;40769;51.512;5.494;2022-11-28T16:14:17;11.90;99.90
13808;DHT22;40769;51.512;5.494;2022-11-28T16:16:44;11.90;99.90
13808;DHT22;40769;51.512;5.494;2022-11-28T16:19:25;12.00;99.90
13808;DHT22;40769;51.512;5.494;2022-11-28T16:21:55;11.90;99.90
13808;DHT22;40769;51.512;5.494;2022-11-28T16:24:49;11.90;99.90
13808;DHT22;40769;51.512;5.494;2022-11-28T16:29:56;11.90;99.90
13808;DHT22;40769;51.512;5.494;2022-11-28T16:34:56;11.90;99.90
13808;DHT22;40769;51.512;5.494;2022-11-28T16:37:26;11.90;99.90
13808;DHT22;40769;51.512;5.494;2022-11-28T16:40:22;11.90;99.90
13808;DHT22;40769;51.512;5.494;2022-11-28T16:42:55;11.90;99.90
13808;DHT22;40769;51.512;5.494;2022-11-28T16:45:27;11.90;99.90
13808;DHT22;40769;51.512;5.494;2022-11-28T16:48:13;11.90;99.90
13808;DHT22;40769;51.512;5.494;2022-11-28T16:53:41;11.90;99.90
13808;DHT22;40769;51.512;5.494;2022-11-28T16:56:42;11.90;99.90
13808;DHT22;40769;51.512;5.494;2022-11-28T16:59:12;11.90;99.90
13808;DHT22;40769;51.512;5.494;2022-11-28T17:01:39;11.90;99.90
13808;DHT22;40769;51.512;5.494;2022-11-28T17:04:05;11.90;99.90
13808;DHT22;40769;51.512;5.494;2022-11-28T17:06:33;11.90;99.90
13808;DHT22;40769;51.512;5.494;2022-11-28T17:09:07;12.00;99.90
13808;DHT22;40769;51.512;5.494;2022-11-28T17:11:35;12.00;99.90
13808;DHT22;40769;51.512;5.494;2022-11-28T17:14:05;12.00;99.90
13808;DHT22;40769;51.512;5.494;2022-11-28T17:16:31;12.00;99.90
13808;DHT22;40769;51.512;5.494;2022-11-28T17:19:01;12.30;99.90
13808;DHT22;40769;51.512;5.494;2022-11-28T17:21:49;12.00;99.90
13808;DHT22;40769;51.512;5.494;2022-11-28T17:24:22;12.00;99.90
13808;DHT22;40769;51.512;5.494;2022-11-28T17:26:49;12.10;99.90
13808;DHT22;40769;51.512;5.494;2022-11-28T17:29:15;12.10;99.90
13808;DHT22;40769;51.512;5.494;2022-11-28T17:31:42;12.10;99.90
13808;DHT22;40769;51.512;5.494;2022-11-28T17:34:20;12.30;99.90
13808;DHT22;40769;51.512;5.494;2022-11-28T17:36:46;12.10;99.90
13808;DHT22;40769;51.512;5.494;2022-11-28T17:39:13;12.10;99.90
13808;DHT22;40769;51.512;5.494;2022-11-28T17:41:39;12.10;99.90
13808;DHT22;40769;51.512;5.494;2022-11-28T17:44:05;12.10;99.90
13808;DHT22;40769;51.512;5.494;2022-11-28T17:46:34;12.10;99.90
13808;DHT22;40769;51.512;5.494;2022-11-28T17:48:59;12.10;99.90
13808;DHT22;40769;51.512;5.494;2022-11-28T17:51:25;12.10;99.90
13808;DHT22;40769;51.512;5.494;2022-11-28T17:53:51;12.10;99.90
13808;DHT22;40769;51.512;5.494;2022-11-28T17:56:17;12.10;99.90
13808;DHT22;40769;51.512;5.494;2022-11-28T17:58:42;12.10;99.90
13808;DHT22;40769;51.512;5.494;2022-11-28T18:01:11;12.10;99.90
13808;DHT22;40769;51.512;5.494;2022-11-28T18:03:37;12.00;99.90
13808;DHT22;40769;51.512;5.494;2022-11-28T18:06:03;12.10;99.90
13808;DHT22;40769;51.512;5.494;2022-11-28T18:08:30;12.00;99.90
13808;DHT22;40769;51.512;5.494;2022-11-28T18:11:03;12.00;99.90
13808;DHT22;40769;51.512;5.494;2022-11-28T18:13:30;12.00;99.90
13808;DHT22;40769;51.512;5.494;2022-11-28T18:15:56;12.20;99.90
13808;DHT22;40769;51.512;5.494;2022-11-28T18:18:22;11.90;99.90
13808;DHT22;40769;51.512;5.494;2022-11-28T18:20:47;11.90;99.90
13808;DHT22;40769;51.512;5.494;2022-11-28T18:23:13;11.90;99.90
13808;DHT22;40769;51.512;5.494;2022-11-28T18:25:42;11.90;99.90
13808;DHT22;40769;51.512;5.494;2022-11-28T18:28:09;11.90;99.90
13808;DHT22;40769;51.512;5.494;2022-11-28T18:30:38;11.90;99.90
13808;DHT22;40769;51.512;5.494;2022-11-28T18:33:04;11.80;99.90
13808;DHT22;40769;51.512;5.494;2022-11-28T18:35:29;11.80;99.90
13808;DHT22;40769;51.512;5.494;2022-11-28T18:37:55;11.80;99.90
13808;DHT22;40769;51.512;5.494;2022-11-28T18:40:20;11.80;99.90
13808;DHT22;40769;51.512;5.494;2022-11-28T18:42:46;11.80;99.90
13808;DHT22;40769;51.512;5.494;2022-11-28T18:45:12;11.80;99.90
13808;DHT22;40769;51.512;5.494;2022-11-28T18:47:37;11.70;99.90
13808;DHT22;40769;51.512;5.494;2022-11-28T18:50:03;11.70;99.90
13808;DHT22;40769;51.512;5.494;2022-11-28T18:52:29;11.60;99.90
13808;DHT22;40769;51.512;5.494;2022-11-28T18:54:54;11.60;99.90
13808;DHT22;40769;51.512;5.494;2022-11-28T18:57:20;11.50;99.90
13808;DHT22;40769;51.512;5.494;2022-11-28T18:59:45;11.40;99.90
13808;DHT22;40769;51.512;5.494;2022-11-28T19:02:11;11.40;99.90
13808;DHT22;40769;51.512;5.494;2022-11-28T19:04:38;11.40;99.90
13808;DHT22;40769;51.512;5.494;2022-11-28T19:07:04;11.40;99.90
13808;DHT22;40769;51.512;5.494;2022-11-28T19:09:29;11.40;99.90
13808;DHT22;40769;51.512;5.494;2022-11-28T19:11:55;11.40;99.90